Time;durP1;ratioP1;P1;durP2;ratioP2;P2;SDS_P1;SDS_P2;PMS_P1;PMS_P2;Temp;Humidity;BMP_temperature;BMP_pressure;BME280_temperature;BME280_humidity;BME280_pressure;Samples;Min_cycle;Max_cycle;Signal;HPM_P1;HPM_P2
2023/04/02 00:02:45;;;;;;;31.70;23.80;;;;;;;5.93;85.24;99418.45;130206;1266;114795;-64
2023/04/02 00:05:50;;;;;;;30.40;22.10;;;;;;;5.87;85.26;99422.40;130393;1256;115278;-64
2023/04/02 00:08:55;;;;;;;;;;;;;;;5.82;85.15;99428.34;130238;1257;114675;-64
2023/04/02 00:11:59;;;;;;;34.50;24.50;;;;;;;5.75;85.15;99433.04;129930;1260;127740;-64
2023/04/02 00:15:02;;;;;;;35.10;26.20;;;;;;;5.68;85.13;99433.86;130331;1266;115065;-64
2023/04/02 00:18:05;;;;;;;34.40;25.50;;;;;;;5.63;85.22;99441.16;130256;1273;115083;-64
2023/04/02 00:21:17;;;;;;;30.70;23.90;;;;;;;5.58;85.14;99439.45;130257;1257;115502;-64
2023/04/02 00:24:21;;;;;;;31.40;23.60;;;;;;;5.54;85.22;99442.28;130285;1262;114833;-64
2023/04/02 00:27:23;;;;;;;31.50;23.20;;;;;;;5.51;85.20;99451.97;130293;1260;129022;-64
2023/04/02 00:30:25;;;;;;;32.00;23.30;;;;;;;5.47;85.08;99456.38;130204;1264;114869;-64
2023/04/02 00:33:30;;;;;;;33.40;23.60;;;;;;;5.43;85.22;99457.80;130328;1257;114728;-64
2023/04/02 00:36:33;;;;;;;29.00;22.30;;;;;;;5.38;85.14;99465.61;130388;1266;115324;-64
2023/04/02 00:39:40;;;;;;;29.80;23.00;;;;;;;5.33;85.18;99468.63;130211;1258;114722;-64
2023/04/02 00:42:43;;;;;;;29.80;22.70;;;;;;;5.26;85.14;99468.59;130064;1254;127810;-64
2023/04/02 00:45:49;;;;;;;35.00;26.30;;;;;;;5.14;85.11;99473.30;130247;1257;114805;-64
2023/04/02 00:48:58;;;;;;;37.70;26.90;;;;;;;5.06;85.05;99471.85;130305;1256;114642;-63
2023/04/02 00:52:09;;;;;;;36.80;27.60;;;;;;;5.02;85.36;99478.40;130146;1260;114805;-64
2023/04/02 00:55:21;;;;;;;38.20;27.50;;;;;;;4.97;85.30;99485.11;130300;1257;114751;-64
2023/04/02 00:58:35;;;;;;;41.80;28.30;;;;;;;4.95;85.33;99487.17;130013;1263;127564;-63
2023/04/02 01:01:41;;;;;;;44.80;30.00;;;;;;;4.91;85.28;99491.22;130119;1260;115205;-64
2023/04/02 01:05:01;;;;;;;34.40;24.80;;;;;;;4.86;85.50;99495.13;130070;1267;114783;-64
2023/04/02 01:08:06;;;;;;;31.80;23.70;;;;;;;4.82;85.40;99499.52;130250;1257;114618;-64
2023/04/02 01:11:36;;;;;;;37.20;24.70;;;;;;;4.79;85.42;99503.35;130008;1261;114706;-64
2023/04/02 01:14:43;;;;;;;24.50;19.10;;;;;;;4.75;85.51;99507.56;130298;1263;129465;-64
2023/04/02 01:18:17;;;;;;;23.60;16.90;;;;;;;4.69;85.30;99511.70;130263;1258;116351;-64
2023/04/02 01:22:08;;;;;;;18.80;15.00;;;;;;;4.61;85.36;99511.65;130360;1257;114724;-64
2023/04/02 01:25:16;;;;;;;21.50;17.00;;;;;;;4.50;85.13;99519.84;130484;1266;115125;-64
2023/04/02 01:28:28;;;;;;;19.00;14.50;;;;;;;4.44;85.40;99525.38;130031;1267;114888;-64
2023/04/02 01:31:32;;;;;;;19.50;15.50;;;;;;;4.33;85.33;99528.94;130291;1267;128525;-64
2023/04/02 01:34:35;;;;;;;20.50;14.80;;;;;;;4.25;85.50;99535.92;130023;1264;116555;-63
2023/04/02 01:38:20;;;;;;;20.70;15.60;;;;;;;4.21;85.50;99537.69;129793;1254;114802;-63
2023/04/02 01:42:08;;;;;;;25.10;19.10;;;;;;;4.17;85.68;99546.81;129966;1270;115030;-63
2023/04/02 01:45:15;;;;;;;22.50;17.80;;;;;;;4.17;85.83;99549.48;129847;1266;114730;-63
2023/04/02 01:48:26;;;;;;;19.70;16.40;;;;;;;4.16;85.83;99551.27;129839;1257;126953;-63
2023/04/02 01:51:33;;;;;;;23.20;17.50;;;;;;;4.13;85.97;99556.88;129927;1257;115433;-63
2023/04/02 01:54:36;;;;;;;24.10;18.00;;;;;;;4.10;86.20;99555.54;129553;1263;115184;-63
2023/04/02 01:57:42;;;;;;;21.70;16.60;;;;;;;4.08;86.36;99566.38;129704;1273;114888;-63
2023/04/02 02:01:15;;;;;;;18.70;14.70;;;;;;;4.04;86.21;99568.14;130272;1258;115004;-63
2023/04/02 02:04:18;;;;;;;20.40;16.10;;;;;;;3.98;86.12;99573.11;130241;1266;129060;-62
2023/04/02 02:07:22;;;;;;;20.20;15.50;;;;;;;3.95;86.23;99575.31;130258;1267;114698;-63
2023/04/02 02:10:27;;;;;;;20.40;15.30;;;;;;;3.92;86.27;99575.96;130332;1257;114831;-63
2023/04/02 02:13:33;;;;;;;18.10;14.20;;;;;;;3.88;86.20;99581.91;130341;1254;114765;-63
2023/04/02 02:16:40;;;;;;;19.30;14.30;;;;;;;3.85;86.36;99582.37;130263;1257;114677;-62
2023/04/02 02:19:50;;;;;;;19.30;14.80;;;;;;;3.83;86.44;99586.31;129806;1257;127705;-62
2023/04/02 02:22:53;;;;;;;15.90;12.90;;;;;;;3.84;86.70;99589.11;130381;1254;115265;-62
2023/04/02 02:25:56;;;;;;;17.40;14.00;;;;;;;3.84;86.61;99598.64;130379;1258;115172;-62
2023/04/02 02:29:00;;;;;;;21.40;16.10;;;;;;;3.83;86.57;99602.77;129988;1254;114775;-62
2023/04/02 02:32:05;;;;;;;15.90;13.80;;;;;;;3.82;86.65;99608.61;129749;1260;116422;-63
2023/04/02 02:35:28;;;;;;;19.40;14.00;;;;;;;3.78;86.55;99613.86;129682;1276;128077;-62
2023/04/02 02:38:56;;;;;;;17.20;12.10;;;;;;;3.74;86.55;99621.77;129972;1257;115151;-62
2023/04/02 02:42:34;;;;;;;12.80;10.40;;;;;;;3.68;86.41;99624.05;130359;1254;114699;-65
2023/04/02 02:45:37;;;;;;;10.70;9.10;;;;;;;3.59;86.16;99634.44;129895;1257;114711;-62
2023/04/02 02:48:42;;;;;;;13.80;10.00;;;;;;;3.52;86.37;99640.64;129898;1258;114766;-62
2023/04/02 02:52:08;;;;;;;11.60;9.70;;;;;;;3.48;86.13;99646.76;130020;1259;128788;-62
2023/04/02 02:55:16;;;;;;;12.10;9.70;;;;;;;3.45;86.39;99650.56;129604;1257;115640;-62
2023/04/02 02:58:31;;;;;;;12.30;9.60;;;;;;;3.40;86.39;99653.17;130140;1260;114783;-62
2023/04/02 03:01:34;;;;;;;13.10;10.30;;;;;;;3.39;86.46;99656.40;130205;1276;114698;-62
2023/04/02 03:04:37;;;;;;;12.20;10.50;;;;;;;3.38;86.60;99659.25;129714;1264;114733;-62
2023/04/02 03:07:40;;;;;;;13.90;11.40;;;;;;;3.40;86.85;99667.83;129931;1257;114798;-62
2023/04/02 03:10:49;;;;;;;12.80;11.40;;;;;;;3.40;86.70;99674.38;130005;1254;114734;-62
2023/04/02 03:13:56;;;;;;;11.50;9.90;;;;;;;3.36;86.66;99680.14;130037;1260;114779;-62
2023/04/02 03:17:18;;;;;;;11.00;9.40;;;;;;;3.28;86.43;99686.71;129692;1260;114815;-61
2023/04/02 03:20:30;;;;;;;10.20;8.80;;;;;;;3.20;86.15;99696.14;130105;1258;114775;-62
2023/04/02 03:23:37;;;;;;;8.40;7.20;;;;;;;3.15;86.36;99699.46;129860;1259;128410;-61
2023/04/02 03:26:53;;;;;;;9.80;7.90;;;;;;;3.09;86.42;99708.27;129690;1276;115183;-63
2023/04/02 03:30:03;;;;;;;10.60;8.10;;;;;;;3.03;86.23;99706.85;130358;1276;115090;-61
2023/04/02 03:33:13;;;;;;;8.80;7.00;;;;;;;2.99;86.35;99713.67;130010;1257;114766;-62
2023/04/02 03:36:29;;;;;;;9.10;7.60;;;;;;;2.91;86.25;99719.71;129949;1258;114737;-62
2023/04/02 03:39:40;;;;;;;10.00;8.80;;;;;;;2.85;86.26;99724.77;129758;1260;127577;-62
2023/04/02 03:42:45;;;;;;;8.70;7.70;;;;;;;2.83;86.45;99730.85;129813;1253;115503;-62
2023/04/02 03:45:51;;;;;;;10.80;9.50;;;;;;;2.78;86.47;99731.16;129699;1262;114734;-62
2023/04/02 03:48:58;;;;;;;14.50;9.80;;;;;;;2.78;86.63;99738.74;129877;1253;114807;-65
2023/04/02 03:52:17;;;;;;;12.30;10.40;;;;;;;2.77;86.74;99746.55;130001;1276;114796;-65
2023/04/02 03:55:25;;;;;;;11.80;10.60;;;;;;;2.77;86.89;99753.77;130394;1256;128787;-66
2023/04/02 03:58:57;;;;;;;13.50;11.40;;;;;;;2.78;86.99;99763.10;130031;1257;115279;-66
2023/04/02 04:02:11;;;;;;;12.70;10.70;;;;;;;2.73;86.60;99766.92;129913;1262;115515;-66
2023/04/02 04:05:26;;;;;;;13.60;11.80;;;;;;;2.68;86.65;99774.80;129724;1281;114900;-65
2023/04/02 04:09:14;;;;;;;15.00;12.90;;;;;;;2.64;86.74;99776.84;129783;1263;115496;-68
2023/04/02 04:12:19;;;;;;;13.30;11.90;;;;;;;2.57;86.67;99785.30;129253;1288;126975;-66
2023/04/02 04:15:34;;;;;;;13.60;12.10;;;;;;;2.52;86.63;99788.41;129086;1269;114903;-68
2023/04/02 04:19:06;;;;;;;15.20;12.00;;;;;;;2.49;86.78;99793.44;129264;1267;115166;-68
2023/04/02 04:22:19;;;;;;;13.20;11.70;;;;;;;2.51;86.81;99803.27;129244;1274;116447;-66
2023/04/02 04:25:29;;;;;;;13.10;11.20;;;;;;;2.49;87.05;99802.59;129194;1287;114944;-69
2023/04/02 04:29:04;;;;;;;12.80;11.00;;;;;;;2.49;86.93;99811.76;129316;1266;129815;-65
2023/04/02 04:32:31;;;;;;;14.90;12.00;;;;;;;2.47;86.97;99815.69;128950;1288;116756;-66
2023/04/02 04:35:37;;;;;;;14.80;12.50;;;;;;;2.46;87.08;99818.70;129079;1272;115323;-65
2023/04/02 04:38:43;;;;;;;15.50;13.40;;;;;;;2.47;87.20;99828.05;129389;1274;114929;-67
2023/04/02 04:41:46;;;;;;;14.80;13.00;;;;;;;2.48;87.12;99833.11;129581;1262;116864;-64
2023/04/02 04:45:27;;;;;;;17.90;14.90;;;;;;;2.51;87.44;99837.80;129563;1267;128559;-63
2023/04/02 04:48:37;;;;;;;28.60;18.90;;;;;;;2.56;87.43;99844.38;129288;1281;115432;-65
2023/04/02 04:51:55;;;;;;;25.80;19.90;;;;;;;2.61;87.64;99849.57;129465;1279;114822;-64
2023/04/02 04:54:58;;;;;;;27.20;19.30;;;;;;;2.61;87.57;99856.09;129673;1258;114921;-66
2023/04/02 04:58:07;;;;;;;32.20;21.90;;;;;;;2.62;87.49;99862.75;129804;1264;114893;-66
2023/04/02 05:01:12;;;;;;;38.80;20.60;;;;;;;2.64;87.87;99871.35;129723;1268;127715;-66
2023/04/02 05:04:35;;;;;;;29.40;20.40;;;;;;;2.63;87.77;99875.42;129621;1281;116494;-64
2023/04/02 05:07:45;;;;;;;23.70;18.10;;;;;;;2.65;87.75;99884.89;129900;1273;114772;-63
2023/04/02 05:10:51;;;;;;;22.70;16.00;;;;;;;2.64;87.75;99894.45;129557;1273;114865;-66
2023/04/02 05:13:58;;;;;;;22.80;16.60;;;;;;;2.64;87.81;99899.04;129606;1273;114952;-65
2023/04/02 05:17:37;;;;;;;24.40;16.20;;;;;;;2.66;87.86;99908.86;129624;1267;127895;-62
2023/04/02 05:20:46;;;;;;;25.70;15.70;;;;;;;2.68;87.90;99914.79;129425;1280;115376;-63
2023/04/02 05:24:03;;;;;;;26.00;16.10;;;;;;;2.65;87.63;99914.53;129499;1263;114828;-64
2023/04/02 05:27:45;;;;;;;24.10;16.00;;;;;;;2.67;87.77;99917.98;129449;1269;114878;-64
2023/04/02 05:31:01;;;;;;;28.20;18.00;;;;;;;2.71;87.88;99920.36;129423;1284;114867;-64
2023/04/02 05:34:04;;;;;;;21.80;15.20;;;;;;;2.70;87.84;99925.52;129486;1284;127773;-62
2023/04/02 05:37:12;;;;;;;22.70;16.20;;;;;;;2.69;87.75;99927.64;129276;1283;114901;-62
2023/04/02 05:40:21;;;;;;;18.00;13.60;;;;;;;2.72;87.95;99932.70;129699;1261;114881;-62
2023/04/02 05:43:24;;;;;;;16.50;11.70;;;;;;;2.72;87.83;99938.33;129718;1277;114904;-62
2023/04/02 05:46:31;;;;;;;20.80;15.10;;;;;;;2.69;87.69;99941.21;129649;1263;114892;-63
2023/04/02 05:49:41;;;;;;;18.80;14.00;;;;;;;2.66;87.27;99945.34;129691;1266;128602;-62
2023/04/02 05:52:56;;;;;;;18.50;12.90;;;;;;;2.65;87.65;99948.58;129554;1283;115159;-63
2023/04/02 05:56:16;;;;;;;17.80;12.50;;;;;;;2.64;87.53;99948.94;129600;1264;114814;-63
2023/04/02 05:59:22;;;;;;;17.60;12.60;;;;;;;2.64;87.53;99958.78;130013;1273;114711;-63
2023/04/02 06:02:35;;;;;;;21.60;14.30;;;;;;;2.64;87.61;99965.48;129781;1262;114827;-63
2023/04/02 06:05:41;;;;;;;15.40;12.30;;;;;;;2.60;87.32;99967.35;130228;1256;128703;-63
2023/04/02 06:08:50;;;;;;;16.30;10.80;;;;;;;2.57;87.44;99974.96;130135;1276;115186;-62
2023/04/02 06:12:10;;;;;;;16.50;12.20;;;;;;;2.57;87.46;99982.38;130220;1256;114804;-62
2023/04/02 06:15:14;;;;;;;12.90;9.90;;;;;;;2.56;87.42;99982.40;130026;1257;114777;-62
2023/04/02 06:18:25;;;;;;;14.60;10.10;;;;;;;2.55;87.32;99987.56;129762;1253;114901;-63
2023/04/02 06:21:27;;;;;;;13.10;10.00;;;;;;;2.51;87.26;99992.55;129739;1275;127583;-62
2023/04/02 06:24:30;;;;;;;19.70;15.20;;;;;;;2.49;87.36;100000.01;130081;1256;115168;-62
2023/04/02 06:27:33;;;;;;;14.10;10.90;;;;;;;2.52;87.44;100004.72;130293;1253;114713;-63
2023/04/02 06:30:38;;;;;;;15.60;10.90;;;;;;;2.56;87.61;100011.84;130420;1256;115154;-63
2023/04/02 06:33:42;;;;;;;16.00;10.00;;;;;;;2.61;87.67;100017.22;129932;1276;115167;-62
2023/04/02 06:36:45;;;;;;;12.80;9.70;;;;;;;2.64;87.61;100020.67;129837;1263;126952;-61
2023/04/02 06:39:48;;;;;;;10.10;7.80;;;;;;;2.70;87.61;100026.37;130193;1276;114746;-62
2023/04/02 06:42:55;;;;;;;12.30;9.10;;;;;;;2.68;87.20;100030.98;130164;1257;115211;-62
2023/04/02 06:46:00;;;;;;;18.00;11.00;;;;;;;2.62;86.84;100032.02;129835;1260;114822;-62
2023/04/02 06:49:37;;;;;;;16.60;11.50;;;;;;;2.62;87.13;100040.27;129902;1276;114888;-63
2023/04/02 06:52:51;;;;;;;11.60;8.80;;;;;;;2.62;87.14;100048.58;130037;1254;127891;-62
2023/04/02 06:56:26;;;;;;;11.20;8.20;;;;;;;2.68;87.23;100051.80;129689;1261;115263;-62
2023/04/02 06:59:28;;;;;;;8.80;7.20;;;;;;;2.74;87.07;100054.67;130003;1276;114970;-62
2023/04/02 07:02:36;;;;;;;10.80;7.60;;;;;;;2.80;87.12;100063.19;129995;1253;115404;-63
2023/04/02 07:05:39;;;;;;;7.40;6.20;;;;;;;2.89;87.44;100066.88;129715;1260;114709;-62
2023/04/02 07:08:41;;;;;;;15.90;9.00;;;;;;;2.95;87.27;100073.06;129940;1267;114887;-62
2023/04/02 07:11:44;;;;;;;7.30;6.10;;;;;;;2.94;86.48;100077.88;130030;1271;115154;-62
2023/04/02 07:14:47;;;;;;;5.80;4.70;;;;;;;2.90;86.34;100079.73;129999;1276;114817;-63
2023/04/02 07:17:50;;;;;;;7.00;5.30;;;;;;;2.87;86.29;100082.79;130083;1256;114698;-63
2023/04/02 07:20:54;;;;;;;7.30;5.50;;;;;;;2.85;86.35;100087.41;129922;1256;114733;-63
2023/04/02 07:23:56;;;;;;;6.50;5.40;;;;;;;2.85;86.16;100085.30;130053;1276;115334;-63
2023/04/02 07:26:59;;;;;;;8.10;5.30;;;;;;;2.88;86.44;100093.52;129982;1276;114711;-63
2023/04/02 07:30:01;;;;;;;11.20;8.40;;;;;;;2.95;86.63;100096.91;129995;1271;114794;-62
2023/04/02 07:33:03;;;;;;;8.90;6.30;;;;;;;2.99;86.24;100104.59;130098;1254;114804;-62
2023/04/02 07:36:06;;;;;;;7.50;5.80;;;;;;;2.99;86.27;100109.70;130105;1256;114724;-62
2023/04/02 07:39:09;;;;;;;6.10;5.00;;;;;;;2.97;85.57;100116.27;130537;1256;114789;-62
2023/04/02 07:42:11;;;;;;;5.20;4.00;;;;;;;2.93;85.45;100118.48;130326;1272;115382;-63
2023/04/02 07:45:15;;;;;;;4.80;3.60;;;;;;;2.92;85.34;100121.31;130381;1254;114701;-64
2023/04/02 07:48:17;;;;;;;4.10;3.60;;;;;;;2.95;85.72;100122.65;130233;1257;232686;-63
2023/04/02 07:51:24;;;;;;;7.10;4.70;;;;;;;3.02;85.90;100120.57;130332;1257;114780;-63
2023/04/02 07:54:27;;;;;;;8.40;5.50;;;;;;;3.08;85.79;100126.45;129986;1260;114806;-62
2023/04/02 07:57:29;;;;;;;6.40;4.70;;;;;;;3.15;86.17;100129.48;130188;1256;114720;-64
2023/04/02 08:00:31;;;;;;;9.80;5.80;;;;;;;3.24;86.07;100137.39;130051;1276;114715;-62
2023/04/02 08:03:34;;;;;;;6.30;4.50;;;;;;;3.30;85.93;100146.08;130380;1256;115399;-63
2023/04/02 08:06:36;;;;;;;4.40;3.90;;;;;;;3.31;85.73;100150.83;130489;1257;128597;-62
2023/04/02 08:09:38;;;;;;;5.70;5.00;;;;;;;3.28;85.29;100155.66;130242;1269;115128;-62
2023/04/02 08:12:41;;;;;;;8.10;5.90;;;;;;;3.29;85.45;100163.95;129960;1254;114705;-62
2023/04/02 08:15:44;;;;;;;7.80;6.30;;;;;;;3.31;85.55;100171.13;129938;1256;115154;-62
2023/04/02 08:18:46;;;;;;;8.20;6.40;;;;;;;3.32;85.40;100181.52;130203;1254;115302;-62
2023/04/02 08:21:50;;;;;;;12.80;7.70;;;;;;;3.39;85.77;100180.85;130002;1257;114786;-62
2023/04/02 08:24:52;;;;;;;9.50;6.30;;;;;;;3.44;85.66;100183.91;130034;1256;114830;-62
2023/04/02 08:27:55;;;;;;;8.00;4.80;;;;;;;3.51;85.81;100190.30;129966;1257;114814;-61
2023/04/02 08:30:57;;;;;;;7.40;4.70;;;;;;;3.53;85.34;100195.02;129995;1257;114738;-62
2023/04/02 08:34:00;;;;;;;6.30;4.70;;;;;;;3.54;85.08;100200.13;129731;1254;114793;-62
2023/04/02 08:37:03;;;;;;;9.10;5.40;;;;;;;3.55;85.08;100204.52;129842;1260;116343;-62
2023/04/02 08:40:09;;;;;;;10.20;7.00;;;;;;;3.56;84.97;100205.54;130113;1269;114762;-62
2023/04/02 08:43:36;;;;;;;6.30;4.70;;;;;;;3.60;84.85;100211.11;130050;1276;128967;-62
2023/04/02 08:46:47;;;;;;;4.30;3.70;;;;;;;3.65;84.93;100211.14;130048;1276;115147;-62
2023/04/02 08:49:59;;;;;;;4.40;3.90;;;;;;;3.76;84.97;100216.40;130066;1269;114815;-63
2023/04/02 08:53:04;;;;;;;5.00;4.60;;;;;;;3.97;85.58;100212.55;129909;1257;114759;-63
2023/04/02 08:56:16;;;;;;;5.60;4.00;;;;;;;4.28;85.90;100209.86;129890;1276;114805;-63
2023/04/02 08:59:39;;;;;;;4.80;3.50;;;;;;;4.50;85.54;100211.27;130052;1257;128513;-63
2023/04/02 09:03:13;;;;;;;7.10;4.30;;;;;;;4.53;84.40;100219.99;130032;1276;115166;-62
2023/04/02 09:06:18;;;;;;;5.00;4.10;;;;;;;4.49;84.05;100220.99;130511;1254;115262;-63
2023/04/02 09:09:21;;;;;;;6.70;4.90;;;;;;;4.46;83.80;100221.08;130707;1260;114662;-62
2023/04/02 09:12:33;;;;;;;11.50;5.40;;;;;;;4.40;83.30;100227.42;130377;1256;114731;-63
2023/04/02 09:15:35;;;;;;;7.20;4.80;;;;;;;4.29;83.14;100233.71;130419;1256;127772;-62
2023/04/02 09:18:39;;;;;;;7.10;5.30;;;;;;;4.23;83.08;100235.27;129978;1260;114695;-62
2023/04/02 09:22:14;;;;;;;8.30;5.40;;;;;;;4.17;82.81;100245.30;129815;1257;114742;-62
2023/04/02 09:25:30;;;;;;;8.80;5.90;;;;;;;4.08;83.04;100253.48;130001;1254;114738;-62
2023/04/02 09:28:32;;;;;;;;;;;;;;;4.03;82.76;100258.01;130084;1276;114815;-62
2023/04/02 09:31:39;;;;;;;7.40;5.50;;;;;;;3.98;83.06;100259.00;130020;1276;114817;-62
2023/04/02 09:34:41;;;;;;;6.70;5.20;;;;;;;3.94;82.96;100264.21;130069;1267;114779;-62
2023/04/02 09:37:45;;;;;;;8.20;5.10;;;;;;;3.87;82.64;100270.02;130120;1257;115259;-62
2023/04/02 09:41:11;;;;;;;8.50;5.60;;;;;;;3.82;82.56;100276.85;130153;1269;114702;-61
2023/04/02 09:44:26;;;;;;;9.60;5.70;;;;;;;3.77;82.18;100284.90;129688;1254;114709;-61
2023/04/02 09:47:30;;;;;;;7.00;5.10;;;;;;;3.75;82.56;100292.01;129835;1275;129263;-61
2023/04/02 09:50:33;;;;;;;6.90;5.00;;;;;;;3.81;83.05;100298.26;129781;1260;114884;-62
2023/04/02 09:53:38;;;;;;;11.20;5.50;;;;;;;3.84;82.73;100301.35;130022;1257;114798;-62
2023/04/02 09:57:01;;;;;;;8.30;5.10;;;;;;;3.86;82.73;100308.23;130168;1269;114683;-62
2023/04/02 10:00:17;;;;;;;16.90;10.30;;;;;;;3.88;82.79;100311.00;129779;1276;116238;-61
2023/04/02 10:03:24;;;;;;;7.60;5.00;;;;;;;3.83;82.23;100309.67;129890;1264;128223;-62
2023/04/02 10:06:28;;;;;;;8.70;5.20;;;;;;;3.77;81.94;100318.29;130103;1257;115192;-62
2023/04/02 10:09:34;;;;;;;10.70;4.70;;;;;;;3.69;81.56;100325.18;130418;1256;114860;-61
2023/04/02 10:12:40;;;;;;;9.30;4.90;;;;;;;3.67;82.21;100323.45;129830;1260;114802;-62
2023/04/02 10:16:31;;;;;;;9.00;5.00;;;;;;;3.74;82.66;100329.66;130127;1256;115095;-62
2023/04/02 10:19:41;;;;;;;8.00;4.10;;;;;;;3.80;82.40;100334.14;129424;1277;129232;-62
2023/04/02 10:22:45;;;;;;;14.90;8.50;;;;;;;3.86;82.13;100341.42;129457;1277;115331;-61
2023/04/02 10:26:19;;;;;;;16.70;10.40;;;;;;;3.87;81.95;100347.94;129382;1262;114901;-62
2023/04/02 10:29:27;;;;;;;9.80;6.10;;;;;;;3.88;81.95;100349.87;129545;1263;114968;-62
2023/04/02 10:32:58;;;;;;;10.30;5.30;;;;;;;3.92;81.90;100352.42;129294;1262;116365;-62
2023/04/02 10:36:18;;;;;;;9.50;5.40;;;;;;;4.00;82.08;100358.45;129505;1276;127584;-62
2023/04/02 10:39:40;;;;;;;5.20;4.40;;;;;;;4.09;81.94;100361.27;129545;1260;115419;-62
2023/04/02 10:42:55;;;;;;;7.20;4.80;;;;;;;4.15;81.41;100358.48;129614;1264;114821;-62
2023/04/02 10:46:24;;;;;;;6.80;5.20;;;;;;;4.22;81.38;100356.36;129525;1265;116363;-63
2023/04/02 10:49:46;;;;;;;6.50;4.00;;;;;;;4.36;81.59;100358.70;129473;1262;114833;-62
2023/04/02 10:52:54;;;;;;;9.50;5.00;;;;;;;4.43;81.26;100360.51;129524;1281;130012;-63
2023/04/02 10:56:02;;;;;;;6.40;4.80;;;;;;;4.44;80.84;100366.14;129634;1259;115218;-63
2023/04/02 10:59:07;;;;;;;8.40;4.70;;;;;;;4.45;80.85;100368.94;130287;1259;114703;-62
2023/04/02 11:02:52;;;;;;;7.80;5.60;;;;;;;4.42;80.34;100368.83;130230;1257;114719;-62
2023/04/02 11:05:57;;;;;;;9.90;5.20;;;;;;;4.36;80.34;100381.88;129870;1278;114951;-63
2023/04/02 11:09:02;;;;;;;;;;;;;;;4.35;80.27;100384.55;129890;1261;128183;-62
2023/04/02 11:12:06;;;;;;;6.90;4.10;;;;;;;4.32;79.79;100389.39;129673;1278;114963;-62
2023/04/02 11:15:17;;;;;;;8.40;4.50;;;;;;;4.29;79.80;100391.41;129874;1278;114773;-62
2023/04/02 11:18:36;;;;;;;7.80;4.40;;;;;;;4.30;79.70;100396.52;129857;1272;114877;-63
2023/04/02 11:21:41;;;;;;;5.20;4.70;;;;;;;4.34;79.98;100406.68;129620;1278;115365;-62
2023/04/02 11:24:46;;;;;;;10.90;5.60;;;;;;;4.41;80.03;100412.69;129836;1278;129007;-63
2023/04/02 11:27:48;;;;;;;6.90;4.30;;;;;;;4.48;79.86;100410.96;129631;1278;116594;-64
2023/04/02 11:30:50;;;;;;;15.80;7.60;;;;;;;4.55;79.51;100410.80;129818;1259;114914;-65
2023/04/02 11:33:54;;;;;;;12.60;7.00;;;;;;;4.66;79.86;100415.67;130110;1259;114869;-62
2023/04/02 11:36:57;;;;;;;6.30;4.10;;;;;;;4.79;80.08;100410.77;129954;1256;114712;-62
2023/04/02 11:40:00;;;;;;;9.50;5.50;;;;;;;4.82;79.01;100412.11;130306;1254;114705;-62
2023/04/02 11:43:35;;;;;;;7.00;4.30;;;;;;;4.83;78.94;100415.80;130138;1254;128867;-61
2023/04/02 11:46:40;;;;;;;6.50;4.10;;;;;;;4.89;79.22;100418.69;130161;1259;114731;-62
2023/04/02 11:49:57;;;;;;;5.30;4.40;;;;;;;4.92;79.03;100419.67;129951;1256;115141;-62
2023/04/02 11:53:09;;;;;;;5.00;3.80;;;;;;;5.01;79.15;100428.84;130197;1254;114978;-62
2023/04/02 11:56:20;;;;;;;8.70;5.20;;;;;;;5.07;78.39;100435.77;129914;1257;115074;-64
2023/04/02 11:59:27;;;;;;;5.60;4.10;;;;;;;5.05;78.23;100441.66;130441;1256;127603;-62
2023/04/02 12:02:40;;;;;;;10.50;6.10;;;;;;;5.00;77.89;100444.42;129777;1256;115634;-62
2023/04/02 12:06:12;;;;;;;9.90;6.10;;;;;;;4.98;78.02;100453.67;129917;1262;114901;-62
2023/04/02 12:09:29;;;;;;;8.20;5.70;;;;;;;4.97;77.68;100457.24;130004;1254;115301;-62
2023/04/02 12:12:38;;;;;;;8.00;5.30;;;;;;;4.93;77.65;100460.88;129851;1262;114806;-62
2023/04/02 12:15:40;;;;;;;11.80;5.70;;;;;;;4.92;77.63;100468.33;130124;1276;128997;-62
2023/04/02 12:18:53;;;;;;;9.60;5.60;;;;;;;4.89;77.33;100473.55;130268;1276;115161;-62
2023/04/02 12:21:58;;;;;;;6.40;4.20;;;;;;;4.89;77.96;100478.84;130360;1269;114865;-63
2023/04/02 12:25:06;;;;;;;8.20;5.30;;;;;;;4.88;77.29;100480.80;130434;1256;114722;-64
2023/04/02 12:28:08;;;;;;;10.10;5.20;;;;;;;4.82;76.76;100481.31;130405;1256;114716;-64
2023/04/02 12:31:13;;;;;;;7.30;4.70;;;;;;;4.80;76.96;100483.85;130251;1257;114769;-64
2023/04/02 12:34:17;;;;;;;9.20;4.80;;;;;;;4.80;77.12;100484.90;130318;1257;114754;-64
2023/04/02 12:37:25;;;;;;;8.10;5.20;;;;;;;4.82;76.91;100487.33;130159;1260;114703;-65
2023/04/02 12:40:27;;;;;;;8.30;5.00;;;;;;;4.84;77.10;100489.94;130099;1259;114941;-64
2023/04/02 12:43:34;;;;;;;9.80;6.30;;;;;;;4.84;76.32;100489.77;130331;1256;115160;-64
2023/04/02 12:46:38;;;;;;;6.10;4.30;;;;;;;4.86;77.02;100488.28;130001;1259;128061;-65
2023/04/02 12:49:42;;;;;;;5.70;4.60;;;;;;;4.90;76.81;100489.61;130004;1253;115218;-65
2023/04/02 12:52:50;;;;;;;6.30;4.80;;;;;;;4.95;76.95;100488.98;130144;1260;115289;-65
2023/04/02 12:55:53;;;;;;;7.30;4.20;;;;;;;5.04;77.24;100494.27;130262;1254;115027;-65
2023/04/02 12:58:56;;;;;;;7.50;4.50;;;;;;;5.11;76.87;100497.48;130182;1259;115381;-66
2023/04/02 13:02:01;;;;;;;7.40;4.60;;;;;;;5.14;76.94;100496.14;130277;1259;128711;-65
2023/04/02 13:05:03;;;;;;;10.80;5.50;;;;;;;5.18;76.92;100496.91;130307;1258;114741;-65
2023/04/02 13:08:13;;;;;;;6.50;4.20;;;;;;;5.22;76.74;100503.55;130262;1258;114798;-64
2023/04/02 13:11:16;;;;;;;9.80;5.10;;;;;;;5.24;76.69;100507.40;130330;1259;114814;-65
2023/04/02 13:14:20;;;;;;;11.10;5.90;;;;;;;5.26;76.73;100509.67;130249;1253;115071;-65
2023/04/02 13:18:01;;;;;;;8.80;5.60;;;;;;;5.27;76.51;100511.59;130413;1260;127882;-65
2023/04/02 13:21:15;;;;;;;17.00;5.90;;;;;;;5.30;76.28;100513.82;129666;1278;116477;-66
2023/04/02 13:24:23;;;;;;;8.20;4.70;;;;;;;5.34;76.22;100515.48;129837;1262;115204;-65
2023/04/02 13:27:25;;;;;;;8.50;4.70;;;;;;;5.38;76.21;100517.00;129836;1260;114885;-65
2023/04/02 13:30:28;;;;;;;11.50;5.30;;;;;;;5.41;76.14;100519.02;129783;1262;114978;-65
2023/04/02 13:33:30;;;;;;;8.40;4.40;;;;;;;5.43;76.32;100523.60;129846;1262;114837;-65
2023/04/02 13:36:33;;;;;;;10.10;6.00;;;;;;;5.46;76.12;100524.08;129804;1262;114817;-65
2023/04/02 13:39:35;;;;;;;7.90;4.40;;;;;;;5.46;75.76;100525.64;129810;1260;115272;-65
2023/04/02 13:42:42;;;;;;;8.30;4.70;;;;;;;5.45;75.88;100524.26;129918;1262;114942;-65
2023/04/02 13:45:48;;;;;;;6.80;5.00;;;;;;;5.49;75.81;100531.06;129904;1260;114863;-64
2023/04/02 13:48:52;;;;;;;10.40;5.70;;;;;;;5.52;75.85;100535.42;129087;1263;114818;-63
2023/04/02 13:51:59;;;;;;;13.60;8.60;;;;;;;5.60;75.96;100538.05;129175;1261;128603;-63
2023/04/02 13:55:03;;;;;;;6.70;4.80;;;;;;;5.69;75.99;100545.64;129302;1269;116541;-63
2023/04/02 13:58:05;;;;;;;7.50;4.80;;;;;;;5.74;75.68;100548.15;129975;1257;114686;-63
2023/04/02 14:01:08;;;;;;;9.70;5.90;;;;;;;5.81;75.61;100547.99;130165;1254;114744;-63
2023/04/02 14:04:16;;;;;;;12.40;6.30;;;;;;;5.85;75.55;100549.48;129998;1255;114800;-63
2023/04/02 14:07:34;;;;;;;13.60;7.90;;;;;;;5.89;75.55;100552.73;130232;1254;127593;-64
2023/04/02 14:11:03;;;;;;;11.70;6.20;;;;;;;5.91;75.52;100558.16;130263;1259;115214;-64
2023/04/02 14:14:25;;;;;;;11.40;5.30;;;;;;;5.95;75.37;100560.75;130568;1254;114726;-64
2023/04/02 14:17:42;;;;;;;8.50;5.00;;;;;;;5.97;75.43;100560.14;129554;1259;114898;-64
2023/04/02 14:21:24;;;;;;;12.00;7.20;;;;;;;5.99;75.34;100564.38;130505;1257;114773;-62
2023/04/02 14:25:12;;;;;;;12.20;5.30;;;;;;;6.00;74.87;100566.48;129846;1270;128360;-62
2023/04/02 14:28:26;;;;;;;9.60;5.10;;;;;;;5.96;74.89;100569.75;129735;1254;115236;-65
2023/04/02 14:31:32;;;;;;;9.00;5.40;;;;;;;5.94;74.97;100572.80;129898;1257;115071;-65
2023/04/02 14:35:16;;;;;;;13.30;6.10;;;;;;;5.95;74.93;100578.48;130555;1256;114709;-64